sensor_id;sensor_type;location;lat;lon;timestamp;temperature;humidity
15717;DHT22;7960;50.908;4.204;2023-02-12T00:02:01;7.90;99.90
15717;DHT22;7960;50.908;4.204;2023-02-12T00:04:28;8.00;99.90
15717;DHT22;7960;50.908;4.204;2023-02-12T00:06:56;8.00;99.90
15717;DHT22;7960;50.908;4.204;2023-02-12T00:09:23;8.00;99.90
15717;DHT22;7960;50.908;4.204;2023-02-12T00:11:50;8.10;99.90
15717;DHT22;7960;50.908;4.204;2023-02-12T00:14:17;8.00;99.90
15717;DHT22;7960;50.908;4.204;2023-02-12T00:16:44;7.90;99.90
15717;DHT22;7960;50.908;4.204;2023-02-12T00:19:10;8.00;99.90
15717;DHT22;7960;50.908;4.204;2023-02-12T00:21:37;8.00;99.90
15717;DHT22;7960;50.908;4.204;2023-02-12T00:24:06;8.00;99.90
15717;DHT22;7960;50.908;4.204;2023-02-12T00:26:34;8.10;99.90
15717;DHT22;7960;50.908;4.204;2023-02-12T00:29:01;8.00;99.90
15717;DHT22;7960;50.908;4.204;2023-02-12T00:31:29;8.00;99.90
15717;DHT22;7960;50.908;4.204;2023-02-12T00:33:57;8.10;99.90
15717;DHT22;7960;50.908;4.204;2023-02-12T00:36:26;8.00;99.90
15717;DHT22;7960;50.908;4.204;2023-02-12T00:38:55;8.00;99.90
15717;DHT22;7960;50.908;4.204;2023-02-12T00:41:24;7.90;99.90
15717;DHT22;7960;50.908;4.204;2023-02-12T00:43:51;7.80;99.90
15717;DHT22;7960;50.908;4.204;2023-02-12T00:46:19;7.90;99.90
15717;DHT22;7960;50.908;4.204;2023-02-12T00:48:46;7.90;99.90
15717;DHT22;7960;50.908;4.204;2023-02-12T00:51:13;7.90;99.90
15717;DHT22;7960;50.908;4.204;2023-02-12T00:53:40;7.90;99.90
15717;DHT22;7960;50.908;4.204;2023-02-12T00:56:07;8.00;99.90
15717;DHT22;7960;50.908;4.204;2023-02-12T00:58:35;7.90;99.90
15717;DHT22;7960;50.908;4.204;2023-02-12T01:01:02;8.00;99.90
15717;DHT22;7960;50.908;4.204;2023-02-12T01:03:29;8.10;99.90
15717;DHT22;7960;50.908;4.204;2023-02-12T01:05:56;8.10;99.90
15717;DHT22;7960;50.908;4.204;2023-02-12T01:08:23;8.20;99.90
15717;DHT22;7960;50.908;4.204;2023-02-12T01:10:55;8.10;99.90
15717;DHT22;7960;50.908;4.204;2023-02-12T01:13:23;8.00;99.90
15717;DHT22;7960;50.908;4.204;2023-02-12T01:16:00;7.90;99.90
15717;DHT22;7960;50.908;4.204;2023-02-12T01:18:27;8.00;99.90
15717;DHT22;7960;50.908;4.204;2023-02-12T01:20:54;8.00;99.90
15717;DHT22;7960;50.908;4.204;2023-02-12T01:23:23;8.00;99.90
15717;DHT22;7960;50.908;4.204;2023-02-12T01:25:50;7.90;99.90
15717;DHT22;7960;50.908;4.204;2023-02-12T01:28:17;7.80;99.90
15717;DHT22;7960;50.908;4.204;2023-02-12T01:30:44;7.70;99.90
15717;DHT22;7960;50.908;4.204;2023-02-12T01:33:12;7.70;99.90
15717;DHT22;7960;50.908;4.204;2023-02-12T01:35:39;7.70;99.90
15717;DHT22;7960;50.908;4.204;2023-02-12T01:38:06;7.80;99.90
15717;DHT22;7960;50.908;4.204;2023-02-12T01:40:32;8.00;99.90
15717;DHT22;7960;50.908;4.204;2023-02-12T01:43:02;8.00;99.90
15717;DHT22;7960;50.908;4.204;2023-02-12T01:45:53;7.90;99.90
15717;DHT22;7960;50.908;4.204;2023-02-12T01:48:22;8.00;99.90
15717;DHT22;7960;50.908;4.204;2023-02-12T01:50:52;8.00;99.90
15717;DHT22;7960;50.908;4.204;2023-02-12T01:53:21;8.00;99.90
15717;DHT22;7960;50.908;4.204;2023-02-12T01:55:52;8.00;99.90
15717;DHT22;7960;50.908;4.204;2023-02-12T01:58:23;7.90;99.90
15717;DHT22;7960;50.908;4.204;2023-02-12T02:00:50;7.80;99.90
15717;DHT22;7960;50.908;4.204;2023-02-12T02:03:17;7.70;99.90
15717;DHT22;7960;50.908;4.204;2023-02-12T02:05:51;7.60;99.90
15717;DHT22;7960;50.908;4.204;2023-02-12T02:08:19;7.60;99.90
15717;DHT22;7960;50.908;4.204;2023-02-12T02:10:46;7.70;99.90
15717;DHT22;7960;50.908;4.204;2023-02-12T02:13:13;7.80;99.90
15717;DHT22;7960;50.908;4.204;2023-02-12T02:15:59;7.80;99.90
15717;DHT22;7960;50.908;4.204;2023-02-12T02:18:35;7.80;99.90
15717;DHT22;7960;50.908;4.204;2023-02-12T02:27:19;7.80;99.90
15717;DHT22;7960;50.908;4.204;2023-02-12T02:32:49;7.60;99.90
15717;DHT22;7960;50.908;4.204;2023-02-12T02:35:24;7.50;99.90
15717;DHT22;7960;50.908;4.204;2023-02-12T02:37:59;7.50;99.90
15717;DHT22;7960;50.908;4.204;2023-02-12T02:40:34;7.40;99.90
15717;DHT22;7960;50.908;4.204;2023-02-12T02:43:06;7.60;99.90
15717;DHT22;7960;50.908;4.204;2023-02-12T02:45:38;7.60;99.90
15717;DHT22;7960;50.908;4.204;2023-02-12T02:48:12;7.70;99.90
15717;DHT22;7960;50.908;4.204;2023-02-12T02:50:43;7.70;99.90
15717;DHT22;7960;50.908;4.204;2023-02-12T02:53:14;7.70;99.90
15717;DHT22;7960;50.908;4.204;2023-02-12T02:55:46;7.70;99.90
15717;DHT22;7960;50.908;4.204;2023-02-12T02:58:15;7.70;99.90
15717;DHT22;7960;50.908;4.204;2023-02-12T03:00:46;7.90;99.90
15717;DHT22;7960;50.908;4.204;2023-02-12T03:03:20;7.90;99.90
15717;DHT22;7960;50.908;4.204;2023-02-12T03:05:49;7.70;99.90
15717;DHT22;7960;50.908;4.204;2023-02-12T03:08:20;7.70;99.90
15717;DHT22;7960;50.908;4.204;2023-02-12T03:10:54;7.70;99.90
15717;DHT22;7960;50.908;4.204;2023-02-12T03:13:26;7.70;99.90
15717;DHT22;7960;50.908;4.204;2023-02-12T03:15:59;7.70;99.90
15717;DHT22;7960;50.908;4.204;2023-02-12T03:18:33;7.60;99.90
15717;DHT22;7960;50.908;4.204;2023-02-12T03:21:03;7.80;99.90
15717;DHT22;7960;50.908;4.204;2023-02-12T03:23:37;7.80;99.90
15717;DHT22;7960;50.908;4.204;2023-02-12T03:26:10;7.80;99.90
15717;DHT22;7960;50.908;4.204;2023-02-12T03:28:38;7.80;99.90
15717;DHT22;7960;50.908;4.204;2023-02-12T03:31:09;7.70;99.90
15717;DHT22;7960;50.908;4.204;2023-02-12T03:33:52;7.60;99.90
15717;DHT22;7960;50.908;4.204;2023-02-12T03:36:29;7.60;99.90
15717;DHT22;7960;50.908;4.204;2023-02-12T03:39:04;7.60;99.90
15717;DHT22;7960;50.908;4.204;2023-02-12T03:41:39;7.60;99.90
15717;DHT22;7960;50.908;4.204;2023-02-12T03:44:15;7.50;99.90
15717;DHT22;7960;50.908;4.204;2023-02-12T03:46:50;7.60;99.90
15717;DHT22;7960;50.908;4.204;2023-02-12T03:49:26;7.70;99.90
15717;DHT22;7960;50.908;4.204;2023-02-12T03:51:55;7.60;99.90
15717;DHT22;7960;50.908;4.204;2023-02-12T03:54:22;7.50;99.90
15717;DHT22;7960;50.908;4.204;2023-02-12T03:56:52;7.50;99.90
15717;DHT22;7960;50.908;4.204;2023-02-12T03:59:21;7.50;99.90
15717;DHT22;7960;50.908;4.204;2023-02-12T04:01:51;7.60;99.90
15717;DHT22;7960;50.908;4.204;2023-02-12T04:04:18;7.60;99.90
15717;DHT22;7960;50.908;4.204;2023-02-12T04:06:48;7.80;99.90
15717;DHT22;7960;50.908;4.204;2023-02-12T04:09:16;7.90;99.90
15717;DHT22;7960;50.908;4.204;2023-02-12T04:11:53;7.80;99.90
15717;DHT22;7960;50.908;4.204;2023-02-12T04:14:26;7.70;99.90
15717;DHT22;7960;50.908;4.204;2023-02-12T04:17:00;7.50;99.90
15717;DHT22;7960;50.908;4.204;2023-02-12T04:19:34;7.40;99.90
15717;DHT22;7960;50.908;4.204;2023-02-12T04:22:14;7.30;99.90
15717;DHT22;7960;50.908;4.204;2023-02-12T04:24:49;7.40;99.90
15717;DHT22;7960;50.908;4.204;2023-02-12T04:27:25;7.60;99.90
15717;DHT22;7960;50.908;4.204;2023-02-12T04:29:59;7.60;99.90
15717;DHT22;7960;50.908;4.204;2023-02-12T04:32:32;7.70;99.90
15717;DHT22;7960;50.908;4.204;2023-02-12T04:35:04;7.80;99.90
15717;DHT22;7960;50.908;4.204;2023-02-12T04:37:38;7.90;99.90
15717;DHT22;7960;50.908;4.204;2023-02-12T04:40:10;7.90;99.90
15717;DHT22;7960;50.908;4.204;2023-02-12T04:42:41;7.80;99.90
15717;DHT22;7960;50.908;4.204;2023-02-12T04:45:09;7.70;99.90
15717;DHT22;7960;50.908;4.204;2023-02-12T04:47:37;7.70;99.90
15717;DHT22;7960;50.908;4.204;2023-02-12T04:50:04;7.90;99.90
15717;DHT22;7960;50.908;4.204;2023-02-12T04:52:32;7.80;99.90
15717;DHT22;7960;50.908;4.204;2023-02-12T04:54:59;7.80;99.90
15717;DHT22;7960;50.908;4.204;2023-02-12T04:57:26;7.70;99.90
15717;DHT22;7960;50.908;4.204;2023-02-12T04:59:53;7.70;99.90
15717;DHT22;7960;50.908;4.204;2023-02-12T05:02:20;7.80;99.90
15717;DHT22;7960;50.908;4.204;2023-02-12T05:04:48;7.80;99.90
15717;DHT22;7960;50.908;4.204;2023-02-12T05:07:15;7.70;99.90
15717;DHT22;7960;50.908;4.204;2023-02-12T05:09:43;7.70;99.90
15717;DHT22;7960;50.908;4.204;2023-02-12T05:12:10;7.50;99.90
15717;DHT22;7960;50.908;4.204;2023-02-12T05:14:37;7.40;99.90
15717;DHT22;7960;50.908;4.204;2023-02-12T05:17:04;7.30;99.90
15717;DHT22;7960;50.908;4.204;2023-02-12T05:19:34;7.40;99.90
15717;DHT22;7960;50.908;4.204;2023-02-12T05:22:02;7.50;99.90
15717;DHT22;7960;50.908;4.204;2023-02-12T05:24:29;7.60;99.90
15717;DHT22;7960;50.908;4.204;2023-02-12T05:26:57;7.70;99.90
15717;DHT22;7960;50.908;4.204;2023-02-12T05:29:24;7.80;99.90
15717;DHT22;7960;50.908;4.204;2023-02-12T05:31:51;7.70;99.90
15717;DHT22;7960;50.908;4.204;2023-02-12T05:34:18;7.70;99.90
15717;DHT22;7960;50.908;4.204;2023-02-12T05:36:45;7.60;99.90
15717;DHT22;7960;50.908;4.204;2023-02-12T05:39:12;7.50;99.90
15717;DHT22;7960;50.908;4.204;2023-02-12T05:41:39;7.50;99.90
15717;DHT22;7960;50.908;4.204;2023-02-12T05:44:07;7.50;99.90
15717;DHT22;7960;50.908;4.204;2023-02-12T05:46:37;7.40;99.90
15717;DHT22;7960;50.908;4.204;2023-02-12T05:49:04;7.40;99.90
15717;DHT22;7960;50.908;4.204;2023-02-12T05:51:31;7.60;99.90
15717;DHT22;7960;50.908;4.204;2023-02-12T05:54:01;7.60;99.90
15717;DHT22;7960;50.908;4.204;2023-02-12T05:56:29;7.80;99.90
15717;DHT22;7960;50.908;4.204;2023-02-12T05:58:58;7.70;99.90
15717;DHT22;7960;50.908;4.204;2023-02-12T06:01:29;7.70;99.90
15717;DHT22;7960;50.908;4.204;2023-02-12T06:03:57;7.70;99.90
15717;DHT22;7960;50.908;4.204;2023-02-12T06:06:24;7.80;99.90
15717;DHT22;7960;50.908;4.204;2023-02-12T06:08:51;7.50;99.90
15717;DHT22;7960;50.908;4.204;2023-02-12T06:11:18;7.50;99.90
15717;DHT22;7960;50.908;4.204;2023-02-12T06:13:45;7.50;99.90
15717;DHT22;7960;50.908;4.204;2023-02-12T06:16:17;7.40;99.90
15717;DHT22;7960;50.908;4.204;2023-02-12T06:18:46;7.30;99.90
15717;DHT22;7960;50.908;4.204;2023-02-12T06:21:12;7.20;99.90
15717;DHT22;7960;50.908;4.204;2023-02-12T06:23:39;7.10;99.90
15717;DHT22;7960;50.908;4.204;2023-02-12T06:26:06;7.00;99.90
15717;DHT22;7960;50.908;4.204;2023-02-12T06:28:33;7.10;99.90
15717;DHT22;7960;50.908;4.204;2023-02-12T06:31:00;7.20;99.90
15717;DHT22;7960;50.908;4.204;2023-02-12T06:33:27;7.10;99.90
15717;DHT22;7960;50.908;4.204;2023-02-12T06:35:55;7.10;99.90
15717;DHT22;7960;50.908;4.204;2023-02-12T06:38:22;7.10;99.90
15717;DHT22;7960;50.908;4.204;2023-02-12T06:40:49;7.10;99.90
15717;DHT22;7960;50.908;4.204;2023-02-12T06:43:16;7.30;99.90
15717;DHT22;7960;50.908;4.204;2023-02-12T06:45:42;7.40;99.90
15717;DHT22;7960;50.908;4.204;2023-02-12T06:48:09;7.40;99.90
15717;DHT22;7960;50.908;4.204;2023-02-12T06:50:36;7.40;99.90
15717;DHT22;7960;50.908;4.204;2023-02-12T06:53:04;7.30;99.90
15717;DHT22;7960;50.908;4.204;2023-02-12T06:55:31;7.30;99.90
15717;DHT22;7960;50.908;4.204;2023-02-12T06:57:59;7.10;99.90
15717;DHT22;7960;50.908;4.204;2023-02-12T07:00:26;7.00;99.90
15717;DHT22;7960;50.908;4.204;2023-02-12T07:02:53;7.00;99.90
15717;DHT22;7960;50.908;4.204;2023-02-12T07:05:21;7.10;99.90
15717;DHT22;7960;50.908;4.204;2023-02-12T07:07:48;7.10;99.90
15717;DHT22;7960;50.908;4.204;2023-02-12T07:10:17;7.20;99.90
15717;DHT22;7960;50.908;4.204;2023-02-12T07:12:44;7.40;99.90
15717;DHT22;7960;50.908;4.204;2023-02-12T07:15:11;7.50;99.90
15717;DHT22;7960;50.908;4.204;2023-02-12T07:17:38;7.40;99.90
15717;DHT22;7960;50.908;4.204;2023-02-12T07:20:06;7.40;99.90
15717;DHT22;7960;50.908;4.204;2023-02-12T07:22:35;7.40;99.90
15717;DHT22;7960;50.908;4.204;2023-02-12T07:25:02;7.40;99.90
15717;DHT22;7960;50.908;4.204;2023-02-12T07:27:30;7.30;99.90
15717;DHT22;7960;50.908;4.204;2023-02-12T07:29:57;7.20;99.90
15717;DHT22;7960;50.908;4.204;2023-02-12T07:32:24;7.30;99.90
15717;DHT22;7960;50.908;4.204;2023-02-12T07:34:51;7.30;99.90
15717;DHT22;7960;50.908;4.204;2023-02-12T07:37:17;7.40;99.90
15717;DHT22;7960;50.908;4.204;2023-02-12T07:39:47;7.50;99.90
15717;DHT22;7960;50.908;4.204;2023-02-12T07:42:14;7.50;99.90
15717;DHT22;7960;50.908;4.204;2023-02-12T07:44:42;7.40;99.90
15717;DHT22;7960;50.908;4.204;2023-02-12T07:47:09;7.40;99.90
15717;DHT22;7960;50.908;4.204;2023-02-12T07:49:36;7.50;99.90
15717;DHT22;7960;50.908;4.204;2023-02-12T07:52:02;7.60;99.90
15717;DHT22;7960;50.908;4.204;2023-02-12T07:54:29;7.60;99.90
15717;DHT22;7960;50.908;4.204;2023-02-12T07:56:57;7.70;99.90
15717;DHT22;7960;50.908;4.204;2023-02-12T07:59:25;7.70;99.90
15717;DHT22;7960;50.908;4.204;2023-02-12T08:01:54;7.60;99.90
15717;DHT22;7960;50.908;4.204;2023-02-12T08:04:23;7.50;99.90
15717;DHT22;7960;50.908;4.204;2023-02-12T08:06:52;7.50;99.90
15717;DHT22;7960;50.908;4.204;2023-02-12T08:09:21;7.50;99.90
15717;DHT22;7960;50.908;4.204;2023-02-12T08:11:49;7.40;99.90
15717;DHT22;7960;50.908;4.204;2023-02-12T08:14:17;7.60;99.90
15717;DHT22;7960;50.908;4.204;2023-02-12T08:16:45;7.60;99.90
15717;DHT22;7960;50.908;4.204;2023-02-12T08:19:14;7.60;99.90
15717;DHT22;7960;50.908;4.204;2023-02-12T08:21:41;7.60;99.90
15717;DHT22;7960;50.908;4.204;2023-02-12T08:24:09;7.70;99.90
15717;DHT22;7960;50.908;4.204;2023-02-12T08:26:37;7.80;99.90
15717;DHT22;7960;50.908;4.204;2023-02-12T08:29:06;7.80;99.90
15717;DHT22;7960;50.908;4.204;2023-02-12T08:31:35;7.70;99.90
15717;DHT22;7960;50.908;4.204;2023-02-12T08:34:03;7.60;99.90
15717;DHT22;7960;50.908;4.204;2023-02-12T08:36:37;7.60;99.90
15717;DHT22;7960;50.908;4.204;2023-02-12T08:39:05;7.60;99.90
15717;DHT22;7960;50.908;4.204;2023-02-12T08:41:34;7.50;99.90
15717;DHT22;7960;50.908;4.204;2023-02-12T08:44:03;7.50;99.90
15717;DHT22;7960;50.908;4.204;2023-02-12T08:46:31;7.40;99.90
15717;DHT22;7960;50.908;4.204;2023-02-12T08:48:59;7.50;99.90
15717;DHT22;7960;50.908;4.204;2023-02-12T08:51:29;7.50;99.90
15717;DHT22;7960;50.908;4.204;2023-02-12T08:54:00;7.60;99.90
15717;DHT22;7960;50.908;4.204;2023-02-12T08:56:29;7.60;99.90
15717;DHT22;7960;50.908;4.204;2023-02-12T08:58:56;7.40;99.90
15717;DHT22;7960;50.908;4.204;2023-02-12T09:01:25;7.50;99.90
15717;DHT22;7960;50.908;4.204;2023-02-12T09:03:55;7.50;99.90
15717;DHT22;7960;50.908;4.204;2023-02-12T09:06:23;7.70;99.90
15717;DHT22;7960;50.908;4.204;2023-02-12T09:08:52;7.70;99.90
15717;DHT22;7960;50.908;4.204;2023-02-12T09:11:22;7.80;99.90
15717;DHT22;7960;50.908;4.204;2023-02-12T09:13:55;7.80;99.90
15717;DHT22;7960;50.908;4.204;2023-02-12T09:16:22;7.70;99.90
15717;DHT22;7960;50.908;4.204;2023-02-12T09:18:49;7.60;99.90
15717;DHT22;7960;50.908;4.204;2023-02-12T09:21:16;7.60;99.90
15717;DHT22;7960;50.908;4.204;2023-02-12T09:23:44;7.60;99.90
15717;DHT22;7960;50.908;4.204;2023-02-12T09:26:14;7.60;99.90
15717;DHT22;7960;50.908;4.204;2023-02-12T09:28:42;7.80;99.90
15717;DHT22;7960;50.908;4.204;2023-02-12T09:31:11;7.90;99.90
15717;DHT22;7960;50.908;4.204;2023-02-12T09:33:40;8.10;99.90
15717;DHT22;7960;50.908;4.204;2023-02-12T09:36:10;8.10;99.90
15717;DHT22;7960;50.908;4.204;2023-02-12T09:38:37;8.00;99.90
15717;DHT22;7960;50.908;4.204;2023-02-12T09:41:15;8.00;99.90
15717;DHT22;7960;50.908;4.204;2023-02-12T09:43:51;8.00;99.90
15717;DHT22;7960;50.908;4.204;2023-02-12T09:46:24;8.10;99.90
15717;DHT22;7960;50.908;4.204;2023-02-12T09:48:58;8.10;99.90
15717;DHT22;7960;50.908;4.204;2023-02-12T09:51:27;8.20;99.90
15717;DHT22;7960;50.908;4.204;2023-02-12T09:54:00;8.30;99.90
15717;DHT22;7960;50.908;4.204;2023-02-12T09:56:28;8.40;99.90
15717;DHT22;7960;50.908;4.204;2023-02-12T09:58:59;8.40;99.90
15717;DHT22;7960;50.908;4.204;2023-02-12T10:01:27;8.40;99.90
15717;DHT22;7960;50.908;4.204;2023-02-12T10:03:54;8.40;99.90
15717;DHT22;7960;50.908;4.204;2023-02-12T10:06:24;8.50;99.90
15717;DHT22;7960;50.908;4.204;2023-02-12T10:09:10;8.60;99.90
15717;DHT22;7960;50.908;4.204;2023-02-12T10:11:53;8.50;99.90
15717;DHT22;7960;50.908;4.204;2023-02-12T10:15:01;8.50;99.90
15717;DHT22;7960;50.908;4.204;2023-02-12T10:17:39;8.40;99.90
15717;DHT22;7960;50.908;4.204;2023-02-12T10:20:36;8.50;99.90
15717;DHT22;7960;50.908;4.204;2023-02-12T10:25:55;8.50;99.90
15717;DHT22;7960;50.908;4.204;2023-02-12T10:28:25;8.60;99.90
15717;DHT22;7960;50.908;4.204;2023-02-12T10:30:57;8.60;99.90
15717;DHT22;7960;50.908;4.204;2023-02-12T10:33:27;8.60;99.90
15717;DHT22;7960;50.908;4.204;2023-02-12T10:36:01;8.60;99.90
15717;DHT22;7960;50.908;4.204;2023-02-12T10:38:33;8.70;99.90
15717;DHT22;7960;50.908;4.204;2023-02-12T10:41:01;8.70;99.90
15717;DHT22;7960;50.908;4.204;2023-02-12T10:43:28;8.70;99.90
15717;DHT22;7960;50.908;4.204;2023-02-12T10:45:57;8.70;99.90
15717;DHT22;7960;50.908;4.204;2023-02-12T10:48:28;8.90;99.90
15717;DHT22;7960;50.908;4.204;2023-02-12T10:51:10;8.80;99.90
15717;DHT22;7960;50.908;4.204;2023-02-12T10:53:42;8.90;99.90
15717;DHT22;7960;50.908;4.204;2023-02-12T10:56:14;8.70;99.90
15717;DHT22;7960;50.908;4.204;2023-02-12T10:58:52;8.70;99.90
15717;DHT22;7960;50.908;4.204;2023-02-12T11:01:24;8.70;99.90
15717;DHT22;7960;50.908;4.204;2023-02-12T11:03:52;8.70;99.90
15717;DHT22;7960;50.908;4.204;2023-02-12T11:06:22;8.70;99.90
15717;DHT22;7960;50.908;4.204;2023-02-12T11:08:50;8.80;99.90
15717;DHT22;7960;50.908;4.204;2023-02-12T11:11:19;8.70;99.90
15717;DHT22;7960;50.908;4.204;2023-02-12T11:13:53;8.70;99.90
15717;DHT22;7960;50.908;4.204;2023-02-12T11:16:31;8.80;99.90
15717;DHT22;7960;50.908;4.204;2023-02-12T11:19:01;8.70;99.90
15717;DHT22;7960;50.908;4.204;2023-02-12T11:21:29;8.70;99.90
15717;DHT22;7960;50.908;4.204;2023-02-12T11:23:56;8.80;99.90
15717;DHT22;7960;50.908;4.204;2023-02-12T11:26:43;8.80;99.90
15717;DHT22;7960;50.908;4.204;2023-02-12T11:29:18;8.80;99.90
15717;DHT22;7960;50.908;4.204;2023-02-12T11:31:59;8.80;99.90
15717;DHT22;7960;50.908;4.204;2023-02-12T11:34:26;8.80;99.90
15717;DHT22;7960;50.908;4.204;2023-02-12T11:36:54;8.90;99.90
15717;DHT22;7960;50.908;4.204;2023-02-12T11:39:23;8.80;99.90
15717;DHT22;7960;50.908;4.204;2023-02-12T11:41:53;8.70;99.90
15717;DHT22;7960;50.908;4.204;2023-02-12T11:44:23;8.80;99.90
15717;DHT22;7960;50.908;4.204;2023-02-12T11:46:56;8.90;99.90
15717;DHT22;7960;50.908;4.204;2023-02-12T11:49:27;8.90;99.90
15717;DHT22;7960;50.908;4.204;2023-02-12T11:51:56;8.90;99.90
15717;DHT22;7960;50.908;4.204;2023-02-12T11:54:27;9.00;99.90
15717;DHT22;7960;50.908;4.204;2023-02-12T11:56:54;8.90;99.90
15717;DHT22;7960;50.908;4.204;2023-02-12T11:59:30;9.00;99.90
15717;DHT22;7960;50.908;4.204;2023-02-12T12:02:03;9.00;99.90
15717;DHT22;7960;50.908;4.204;2023-02-12T12:04:33;9.00;99.90
15717;DHT22;7960;50.908;4.204;2023-02-12T12:07:03;8.80;99.90
15717;DHT22;7960;50.908;4.204;2023-02-12T12:09:36;8.90;99.90
15717;DHT22;7960;50.908;4.204;2023-02-12T12:12:12;8.90;99.90
15717;DHT22;7960;50.908;4.204;2023-02-12T12:14:43;8.90;99.90
15717;DHT22;7960;50.908;4.204;2023-02-12T12:17:37;9.00;99.90
15717;DHT22;7960;50.908;4.204;2023-02-12T12:20:26;9.10;99.90
15717;DHT22;7960;50.908;4.204;2023-02-12T12:22:58;9.10;99.90
15717;DHT22;7960;50.908;4.204;2023-02-12T12:25:29;9.10;99.90
15717;DHT22;7960;50.908;4.204;2023-02-12T12:28:00;9.10;99.90
15717;DHT22;7960;50.908;4.204;2023-02-12T12:30:42;9.10;99.90
15717;DHT22;7960;50.908;4.204;2023-02-12T12:33:16;9.00;99.90
15717;DHT22;7960;50.908;4.204;2023-02-12T12:35:55;9.00;99.90
15717;DHT22;7960;50.908;4.204;2023-02-12T12:38:32;9.00;99.90
15717;DHT22;7960;50.908;4.204;2023-02-12T12:41:09;9.00;99.90
15717;DHT22;7960;50.908;4.204;2023-02-12T12:43:48;9.00;99.90
15717;DHT22;7960;50.908;4.204;2023-02-12T12:46:39;9.10;99.90
15717;DHT22;7960;50.908;4.204;2023-02-12T12:49:29;9.10;99.90
15717;DHT22;7960;50.908;4.204;2023-02-12T12:52:20;9.20;99.90
15717;DHT22;7960;50.908;4.204;2023-02-12T12:55:05;9.30;99.90
15717;DHT22;7960;50.908;4.204;2023-02-12T12:57:44;9.20;99.90
15717;DHT22;7960;50.908;4.204;2023-02-12T13:00:28;9.10;99.90
15717;DHT22;7960;50.908;4.204;2023-02-12T13:06:34;9.20;99.90
15717;DHT22;7960;50.908;4.204;2023-02-12T13:09:18;9.30;99.90
15717;DHT22;7960;50.908;4.204;2023-02-12T13:12:07;9.20;99.90
15717;DHT22;7960;50.908;4.204;2023-02-12T13:14:44;9.20;99.90
15717;DHT22;7960;50.908;4.204;2023-02-12T13:17:18;9.20;99.90
15717;DHT22;7960;50.908;4.204;2023-02-12T13:19:56;9.20;99.90
15717;DHT22;7960;50.908;4.204;2023-02-12T13:22:34;9.20;99.90
15717;DHT22;7960;50.908;4.204;2023-02-12T13:25:05;9.20;99.90
15717;DHT22;7960;50.908;4.204;2023-02-12T13:27:39;9.30;99.90
15717;DHT22;7960;50.908;4.204;2023-02-12T13:30:18;9.20;99.90
15717;DHT22;7960;50.908;4.204;2023-02-12T13:32:48;9.20;99.90
15717;DHT22;7960;50.908;4.204;2023-02-12T13:35:19;9.20;99.90
15717;DHT22;7960;50.908;4.204;2023-02-12T13:37:51;9.10;99.90
15717;DHT22;7960;50.908;4.204;2023-02-12T13:40:21;9.20;99.90
15717;DHT22;7960;50.908;4.204;2023-02-12T13:42:54;9.10;99.90
15717;DHT22;7960;50.908;4.204;2023-02-12T13:45:33;9.10;99.90
15717;DHT22;7960;50.908;4.204;2023-02-12T13:48:24;9.10;99.90
15717;DHT22;7960;50.908;4.204;2023-02-12T13:51:01;9.20;99.90
15717;DHT22;7960;50.908;4.204;2023-02-12T13:53:46;9.30;99.90
15717;DHT22;7960;50.908;4.204;2023-02-12T13:56:28;9.20;99.90
15717;DHT22;7960;50.908;4.204;2023-02-12T13:58:58;9.20;99.90
15717;DHT22;7960;50.908;4.204;2023-02-12T14:01:40;9.10;99.90
15717;DHT22;7960;50.908;4.204;2023-02-12T14:04:27;9.10;99.90
15717;DHT22;7960;50.908;4.204;2023-02-12T14:06:58;9.20;99.90
15717;DHT22;7960;50.908;4.204;2023-02-12T14:09:30;9.20;99.90
15717;DHT22;7960;50.908;4.204;2023-02-12T14:12:00;9.20;99.90
15717;DHT22;7960;50.908;4.204;2023-02-12T14:14:33;9.20;99.90
15717;DHT22;7960;50.908;4.204;2023-02-12T14:20:06;9.10;99.90
15717;DHT22;7960;50.908;4.204;2023-02-12T14:23:00;9.20;99.90
15717;DHT22;7960;50.908;4.204;2023-02-12T14:25:43;9.20;99.90
15717;DHT22;7960;50.908;4.204;2023-02-12T14:28:22;9.30;99.90
15717;DHT22;7960;50.908;4.204;2023-02-12T14:37:17;9.20;99.90
15717;DHT22;7960;50.908;4.204;2023-02-12T14:40:35;9.10;99.90
15717;DHT22;7960;50.908;4.204;2023-02-12T14:43:25;9.10;99.90
15717;DHT22;7960;50.908;4.204;2023-02-12T14:45:53;9.10;99.90
15717;DHT22;7960;50.908;4.204;2023-02-12T14:48:39;9.10;99.90
15717;DHT22;7960;50.908;4.204;2023-02-12T14:51:15;9.10;99.90
15717;DHT22;7960;50.908;4.204;2023-02-12T14:53:45;9.20;99.90
15717;DHT22;7960;50.908;4.204;2023-02-12T14:56:13;9.10;99.90
15717;DHT22;7960;50.908;4.204;2023-02-12T14:58:45;9.10;99.90
15717;DHT22;7960;50.908;4.204;2023-02-12T15:01:12;9.10;99.90
15717;DHT22;7960;50.908;4.204;2023-02-12T15:03:42;9.10;99.90
15717;DHT22;7960;50.908;4.204;2023-02-12T15:06:15;9.10;99.90
15717;DHT22;7960;50.908;4.204;2023-02-12T15:08:50;9.00;99.90
15717;DHT22;7960;50.908;4.204;2023-02-12T15:11:37;9.10;99.90
15717;DHT22;7960;50.908;4.204;2023-02-12T15:14:12;9.00;99.90
15717;DHT22;7960;50.908;4.204;2023-02-12T15:16:48;9.00;99.90
15717;DHT22;7960;50.908;4.204;2023-02-12T15:19:28;9.00;99.90
15717;DHT22;7960;50.908;4.204;2023-02-12T15:21:57;9.00;99.90
15717;DHT22;7960;50.908;4.204;2023-02-12T15:24:25;9.00;99.90
15717;DHT22;7960;50.908;4.204;2023-02-12T15:26:55;9.10;99.90
15717;DHT22;7960;50.908;4.204;2023-02-12T15:29:27;9.10;99.90
15717;DHT22;7960;50.908;4.204;2023-02-12T15:31:56;9.00;99.90
15717;DHT22;7960;50.908;4.204;2023-02-12T15:34:26;9.00;99.90
15717;DHT22;7960;50.908;4.204;2023-02-12T15:36:56;9.00;99.90
15717;DHT22;7960;50.908;4.204;2023-02-12T15:39:24;8.90;99.90
15717;DHT22;7960;50.908;4.204;2023-02-12T15:41:52;8.90;99.90
15717;DHT22;7960;50.908;4.204;2023-02-12T15:44:31;8.90;99.90
15717;DHT22;7960;50.908;4.204;2023-02-12T15:47:02;8.90;99.90
15717;DHT22;7960;50.908;4.204;2023-02-12T15:49:37;8.90;99.90
15717;DHT22;7960;50.908;4.204;2023-02-12T15:52:07;8.70;99.90
15717;DHT22;7960;50.908;4.204;2023-02-12T15:54:35;8.80;99.90
15717;DHT22;7960;50.908;4.204;2023-02-12T15:57:09;8.80;99.90
15717;DHT22;7960;50.908;4.204;2023-02-12T15:59:39;8.80;99.90
15717;DHT22;7960;50.908;4.204;2023-02-12T16:02:17;8.80;99.90
15717;DHT22;7960;50.908;4.204;2023-02-12T16:04:45;8.90;99.90
15717;DHT22;7960;50.908;4.204;2023-02-12T16:07:12;8.80;99.90
15717;DHT22;7960;50.908;4.204;2023-02-12T16:09:41;8.80;99.90
15717;DHT22;7960;50.908;4.204;2023-02-12T16:12:13;8.80;99.90
15717;DHT22;7960;50.908;4.204;2023-02-12T16:14:44;8.70;99.90
15717;DHT22;7960;50.908;4.204;2023-02-12T16:17:21;8.70;99.90
15717;DHT22;7960;50.908;4.204;2023-02-12T16:19:56;8.70;99.90
15717;DHT22;7960;50.908;4.204;2023-02-12T16:22:27;8.60;99.90
15717;DHT22;7960;50.908;4.204;2023-02-12T16:24:56;8.60;99.90
15717;DHT22;7960;50.908;4.204;2023-02-12T16:27:25;8.60;99.90
15717;DHT22;7960;50.908;4.204;2023-02-12T16:29:55;8.60;99.90
15717;DHT22;7960;50.908;4.204;2023-02-12T16:32:32;8.50;99.90
15717;DHT22;7960;50.908;4.204;2023-02-12T16:35:05;8.50;99.90
15717;DHT22;7960;50.908;4.204;2023-02-12T16:37:44;8.40;99.90
15717;DHT22;7960;50.908;4.204;2023-02-12T16:40:19;8.50;99.90
15717;DHT22;7960;50.908;4.204;2023-02-12T16:43:01;8.50;99.90
15717;DHT22;7960;50.908;4.204;2023-02-12T16:45:35;8.60;99.90
15717;DHT22;7960;50.908;4.204;2023-02-12T16:48:07;8.50;99.90
15717;DHT22;7960;50.908;4.204;2023-02-12T16:50:36;8.60;99.90
15717;DHT22;7960;50.908;4.204;2023-02-12T16:53:07;8.50;99.90
15717;DHT22;7960;50.908;4.204;2023-02-12T16:55:47;8.50;99.90